createdAt,value
2019-01-06T00:02:02.498Z,4.67
2019-01-06T00:05:04.737Z,4.77
2019-01-06T00:08:03.633Z,3.57
2019-01-06T00:10:49.037Z,3.50
2019-01-06T00:13:40.062Z,3.87
2019-01-06T00:16:22.415Z,3.50
2019-01-06T00:19:09.442Z,3.97
2019-01-06T00:22:05.423Z,3.23
2019-01-06T00:24:50.955Z,4.13
2019-01-06T00:27:37.617Z,3.83
2019-01-06T00:30:31.017Z,3.90
2019-01-06T00:33:30.213Z,3.67
2019-01-06T00:36:14.077Z,2.93
2019-01-06T00:38:58.441Z,3.47
2019-01-06T00:41:45.500Z,3.97
2019-01-06T00:44:35.339Z,3.77
2019-01-06T00:47:20.787Z,3.47
2019-01-06T00:50:13.837Z,3.23
2019-01-06T00:53:15.755Z,3.40
2019-01-06T00:56:01.362Z,3.67
2019-01-06T00:58:57.593Z,3.57
2019-01-06T01:01:58.854Z,3.13
2019-01-06T01:04:44.606Z,3.40
2019-01-06T01:07:43.875Z,3.70
2019-01-06T01:10:33.728Z,4.30
2019-01-06T01:13:20.811Z,3.20
2019-01-06T01:16:13.731Z,3.73
2019-01-06T01:18:59.297Z,3.80
2019-01-06T01:21:44.982Z,3.40
2019-01-06T01:24:32.089Z,3.90
2019-01-06T01:27:22.011Z,3.67
2019-01-06T01:30:09.126Z,3.70
2019-01-06T01:33:11.348Z,3.17
2019-01-06T01:35:50.039Z,3.50
2019-01-06T01:38:35.445Z,4.17
2019-01-06T01:41:25.421Z,3.97
2019-01-06T01:44:11.163Z,3.17
2019-01-06T01:46:58.244Z,3.67
2019-01-06T01:49:54.748Z,3.87
2019-01-06T01:52:40.415Z,3.30
2019-01-06T01:55:38.637Z,3.33
2019-01-06T01:58:28.719Z,3.47
2019-01-06T02:01:22.077Z,3.50
2019-01-06T02:04:07.716Z,3.80
2019-01-06T02:06:54.738Z,3.60
2019-01-06T02:09:40.169Z,3.80
2019-01-06T02:12:33.241Z,3.27
2019-01-06T02:15:24.253Z,4.00
2019-01-06T02:18:09.622Z,4.13
2019-01-06T02:21:11.904Z,4.00
2019-01-06T02:23:57.318Z,3.50
2019-01-06T02:26:43.029Z,3.33
2019-01-06T02:29:28.738Z,3.20
2019-01-06T02:32:18.841Z,3.53
2019-01-06T02:35:17.842Z,3.67
2019-01-06T02:38:14.072Z,3.57
2019-01-06T02:40:59.647Z,3.93
2019-01-06T02:44:04.812Z,3.80
2019-01-06T02:46:55.316Z,3.80
2019-01-06T02:49:44.916Z,4.70
2019-01-06T02:52:31.992Z,3.50
2019-01-06T02:55:17.596Z,3.30
2019-01-06T02:58:02.855Z,3.77
2019-01-06T03:00:58.398Z,4.03
2019-01-06T03:03:38.170Z,3.50
2019-01-06T03:06:43.193Z,3.87
2019-01-06T03:09:33.381Z,3.70
2019-01-06T03:12:23.083Z,4.00
2019-01-06T03:15:08.619Z,3.47
2019-01-06T03:17:58.456Z,3.50
2019-01-06T03:20:47.453Z,3.53
2019-01-06T03:23:52.668Z,3.67
2019-01-06T03:26:38.425Z,3.47
2019-01-06T03:29:31.721Z,5.63
2019-01-06T03:32:30.698Z,4.60
2019-01-06T03:35:20.768Z,3.77
2019-01-06T03:38:10.877Z,4.00
2019-01-06T03:41:00.726Z,3.80
2019-01-06T03:43:50.627Z,3.80
2019-01-06T03:46:45.987Z,4.40
2019-01-06T03:49:41.861Z,3.17
2019-01-06T03:52:31.104Z,4.83
2019-01-06T03:55:16.644Z,3.83
2019-01-06T03:58:02.449Z,4.50
2019-01-06T04:01:01.431Z,3.43
2019-01-06T04:03:46.939Z,3.47
2019-01-06T04:06:34.921Z,3.30
2019-01-06T04:09:24.892Z,4.20
2019-01-06T04:12:10.688Z,3.60
2019-01-06T04:14:56.318Z,4.33
2019-01-06T04:17:42.013Z,3.37
2019-01-06T04:20:44.277Z,4.00
2019-01-06T04:23:29.991Z,4.37
2019-01-06T04:26:15.690Z,4.27
2019-01-06T04:29:05.927Z,3.57
2019-01-06T04:32:08.108Z,4.40
2019-01-06T04:34:53.855Z,3.53
2019-01-06T04:37:44.059Z,4.00
2019-01-06T04:40:34.887Z,4.30
2019-01-06T04:43:21.944Z,3.43
2019-01-06T04:46:07.466Z,3.53
2019-01-06T04:48:53.093Z,3.70
2019-01-06T04:51:40.198Z,3.37
2019-01-06T04:54:27.273Z,3.23
2019-01-06T04:57:12.711Z,3.30
2019-01-06T05:00:06.822Z,3.40
2019-01-06T05:03:00.064Z,3.83
2019-01-06T05:06:05.120Z,3.67
2019-01-06T05:09:01.207Z,4.10
2019-01-06T05:11:51.182Z,3.80
2019-01-06T05:14:48.417Z,4.10
2019-01-06T05:17:44.561Z,3.50
2019-01-06T05:20:46.786Z,3.67
2019-01-06T05:23:32.248Z,3.80
2019-01-06T05:26:19.329Z,3.27
2019-01-06T05:29:04.667Z,3.80
2019-01-06T05:32:03.552Z,3.63
2019-01-06T05:34:51.791Z,3.60
2019-01-06T05:37:38.828Z,4.23
2019-01-06T05:40:25.939Z,3.80
2019-01-06T05:43:11.326Z,3.40
2019-01-06T05:45:52.765Z,3.63
2019-01-06T05:48:42.594Z,3.73
2019-01-06T05:51:28.119Z,3.97
2019-01-06T05:54:15.399Z,6.07
2019-01-06T05:57:00.855Z,3.60
2019-01-06T05:59:58.586Z,3.83
2019-01-06T06:02:43.211Z,3.93
2019-01-06T06:05:48.472Z,3.70
2019-01-06T06:08:47.608Z,4.10
2019-01-06T06:11:33.194Z,4.27
2019-01-06T06:14:18.886Z,4.27
2019-01-06T06:17:05.935Z,4.33
2019-01-06T06:20:04.914Z,3.73
2019-01-06T06:23:10.246Z,3.63
2019-01-06T06:26:03.991Z,4.13
2019-01-06T06:28:46.055Z,4.10
2019-01-06T06:31:38.840Z,4.40
2019-01-06T06:34:34.490Z,3.83
2019-01-06T06:37:20.046Z,3.47
2019-01-06T06:40:01.608Z,3.93
2019-01-06T06:42:50.645Z,3.57
2019-01-06T06:45:36.215Z,4.20
2019-01-06T06:48:23.394Z,3.90
2019-01-06T06:51:25.748Z,4.00
2019-01-06T06:54:11.421Z,4.30
2019-01-06T06:56:51.822Z,3.80
2019-01-06T06:59:38.953Z,4.40
2019-01-06T07:02:43.866Z,3.83
2019-01-06T07:05:38.802Z,4.07
2019-01-06T07:08:38.015Z,4.27
2019-01-06T07:11:34.110Z,4.20
2019-01-06T07:14:19.526Z,4.30
2019-01-06T07:17:24.119Z,4.77
2019-01-06T07:20:07.458Z,5.03
2019-01-06T07:22:57.529Z,5.00
2019-01-06T07:25:50.629Z,7.23
2019-01-06T07:28:43.829Z,6.20
2019-01-06T07:31:43.022Z,5.27
2019-01-06T07:34:28.799Z,5.33
2019-01-06T07:37:21.977Z,5.43
2019-01-06T07:40:09.097Z,5.60
2019-01-06T07:42:55.910Z,5.83
2019-01-06T07:46:02.739Z,6.23
2019-01-06T07:49:01.874Z,7.60
2019-01-06T07:51:45.946Z,7.33
2019-01-06T07:54:24.325Z,6.57
2019-01-06T07:57:20.427Z,8.57
2019-01-06T08:00:06.153Z,6.30
2019-01-06T08:03:05.296Z,7.27
2019-01-06T08:05:58.379Z,7.40
2019-01-06T08:08:48.170Z,8.13
2019-01-06T08:11:40.982Z,7.73
2019-01-06T08:14:46.238Z,6.97
2019-01-06T08:17:39.034Z,6.37
2019-01-06T08:20:26.065Z,6.70
2019-01-06T08:23:30.998Z,7.10
2019-01-06T08:26:17.072Z,7.03
2019-01-06T08:29:16.667Z,7.27
2019-01-06T08:32:01.749Z,8.07
2019-01-06T08:34:56.300Z,6.77
2019-01-06T08:37:43.416Z,11.00
2019-01-06T08:40:27.786Z,8.37
2019-01-06T08:43:14.862Z,8.10
2019-01-06T08:46:00.501Z,10.37
2019-01-06T08:48:45.752Z,8.97
2019-01-06T08:51:31.518Z,7.67
2019-01-06T08:54:30.493Z,13.93
2019-01-06T08:57:20.462Z,10.07
2019-01-06T09:00:17.901Z,10.70
2019-01-06T09:03:04.953Z,17.10
2019-01-06T09:06:07.279Z,9.73
2019-01-06T09:08:57.308Z,11.20
2019-01-06T09:11:42.796Z,9.73
2019-01-06T09:14:28.668Z,11.80
2019-01-06T09:17:14.156Z,8.50
2019-01-06T09:20:04.010Z,11.90
2019-01-06T09:22:53.864Z,12.67
2019-01-06T09:25:41.231Z,12.47
2019-01-06T09:28:28.148Z,10.57
2019-01-06T09:31:15.212Z,12.20
2019-01-06T09:34:00.884Z,14.63
2019-01-06T09:36:46.321Z,13.97
2019-01-06T09:39:33.385Z,13.67
2019-01-06T09:42:23.591Z,13.73
2019-01-06T09:45:14.505Z,13.30
2019-01-06T09:48:13.749Z,14.70
2019-01-06T09:50:56.804Z,13.77
2019-01-06T09:53:43.895Z,13.07
2019-01-06T09:56:29.279Z,11.60
2019-01-06T09:59:16.341Z,13.03
2019-01-06T10:02:03.392Z,13.73
2019-01-06T10:04:56.333Z,12.10
2019-01-06T10:07:41.985Z,14.73
2019-01-06T10:10:38.239Z,11.57
2019-01-06T10:13:25.314Z,12.10
2019-01-06T10:16:11.110Z,14.00
2019-01-06T10:18:58.172Z,13.10
2019-01-06T10:22:00.426Z,12.17
2019-01-06T10:24:52.015Z,21.47
2019-01-06T10:27:37.869Z,19.70
2019-01-06T10:30:16.014Z,14.63
2019-01-06T10:33:03.107Z,16.10
2019-01-06T10:35:48.606Z,15.80
2019-01-06T10:38:34.338Z,21.37
2019-01-06T10:41:19.998Z,15.93
2019-01-06T10:44:05.644Z,18.47
2019-01-06T10:47:10.868Z,12.57
2019-01-06T10:49:56.377Z,14.00
2019-01-06T10:52:46.433Z,14.10
2019-01-06T10:55:38.120Z,14.43
2019-01-06T10:58:34.783Z,14.60
2019-01-06T11:01:33.733Z,13.53
2019-01-06T11:04:23.757Z,13.73
2019-01-06T11:07:19.951Z,22.87
2019-01-06T11:10:02.989Z,15.60
2019-01-06T11:13:04.997Z,14.20
2019-01-06T11:16:10.000Z,13.27
2019-01-06T11:18:57.092Z,12.27
2019-01-06T11:21:42.776Z,12.93
2019-01-06T11:24:41.982Z,12.40
2019-01-06T11:27:38.253Z,11.47
2019-01-06T11:30:25.479Z,13.27
2019-01-06T11:33:11.935Z,13.47
2019-01-06T11:36:07.771Z,14.37
2019-01-06T11:39:00.741Z,14.67
2019-01-06T11:41:47.843Z,13.50
2019-01-06T11:44:33.542Z,11.23
2019-01-06T11:47:20.234Z,14.17
2019-01-06T11:49:59.296Z,12.10
2019-01-06T11:52:46.307Z,11.27
2019-01-06T11:55:27.078Z,12.53
2019-01-06T11:58:12.565Z,10.67
2019-01-06T12:00:59.711Z,10.40
2019-01-06T12:03:47.932Z,12.03
2019-01-06T12:06:33.460Z,10.97
2019-01-06T12:09:20.497Z,10.20
2019-01-06T12:12:10.639Z,10.23
2019-01-06T12:15:12.865Z,10.27
2019-01-06T12:18:00.489Z,13.80
2019-01-06T12:20:46.179Z,11.27
2019-01-06T12:23:33.283Z,10.17
2019-01-06T12:26:29.230Z,10.23
2019-01-06T12:29:15.002Z,9.13
2019-01-06T12:32:16.991Z,12.10
2019-01-06T12:35:02.255Z,10.50
2019-01-06T12:37:49.294Z,9.33
2019-01-06T12:40:39.385Z,9.47
2019-01-06T12:43:25.014Z,9.63
2019-01-06T12:46:24.197Z,8.57
2019-01-06T12:49:09.875Z,9.30
2019-01-06T12:51:55.611Z,9.60
2019-01-06T12:54:51.591Z,8.40
2019-01-06T12:57:53.906Z,9.00
2019-01-06T13:00:58.931Z,8.03
2019-01-06T13:03:44.343Z,8.60
2019-01-06T13:06:34.525Z,8.40
2019-01-06T13:09:33.715Z,8.07
2019-01-06T13:12:20.792Z,8.07
2019-01-06T13:15:19.653Z,10.20
2019-01-06T13:18:06.781Z,8.00
2019-01-06T13:20:49.601Z,8.40
2019-01-06T13:23:36.698Z,9.60
2019-01-06T13:26:32.557Z,8.93
2019-01-06T13:29:19.761Z,9.03
2019-01-06T13:32:06.836Z,11.57
2019-01-06T13:34:52.314Z,8.50
2019-01-06T13:37:51.286Z,7.80
2019-01-06T13:40:38.349Z,8.30
2019-01-06T13:43:28.405Z,8.93
2019-01-06T13:46:24.832Z,8.33
2019-01-06T13:49:17.826Z,8.17
2019-01-06T13:52:04.905Z,8.23
2019-01-06T13:54:58.068Z,8.17
2019-01-06T13:57:43.629Z,9.03
2019-01-06T14:00:42.801Z,8.97
2019-01-06T14:03:29.904Z,9.23
2019-01-06T14:06:16.933Z,9.43
2019-01-06T14:09:13.055Z,11.73
2019-01-06T14:11:59.637Z,10.53
2019-01-06T14:15:01.563Z,9.83
2019-01-06T14:17:57.537Z,9.27
2019-01-06T14:20:44.602Z,12.83
2019-01-06T14:23:34.646Z,11.70
2019-01-06T14:26:20.385Z,10.57
2019-01-06T14:29:07.408Z,27.57
2019-01-06T14:31:57.393Z,18.37
2019-01-06T14:34:50.563Z,35.80
2019-01-06T14:37:52.564Z,13.90
2019-01-06T14:40:39.956Z,10.10
2019-01-06T14:43:25.362Z,14.00
2019-01-06T14:46:15.567Z,14.43
2019-01-06T14:49:05.692Z,13.17
2019-01-06T14:51:51.153Z,12.60
2019-01-06T14:54:44.248Z,13.10
2019-01-06T14:57:31.374Z,12.53
2019-01-06T15:00:24.599Z,11.60
2019-01-06T15:03:10.085Z,12.53
2019-01-06T15:06:06.280Z,12.07
2019-01-06T15:08:52.135Z,11.73
2019-01-06T15:11:45.239Z,12.47
2019-01-06T15:14:30.972Z,12.67
2019-01-06T15:17:33.201Z,11.23
2019-01-06T15:20:18.864Z,11.87
2019-01-06T15:23:04.595Z,10.63
2019-01-06T15:25:57.776Z,12.77
2019-01-06T15:28:42.168Z,10.43
2019-01-06T15:31:44.286Z,10.50
2019-01-06T15:34:37.122Z,11.20
2019-01-06T15:37:22.892Z,12.07
2019-01-06T15:40:16.069Z,10.63
2019-01-06T15:43:21.314Z,9.77
2019-01-06T15:46:23.251Z,11.20
2019-01-06T15:49:08.841Z,11.03
2019-01-06T15:51:56.675Z,11.07
2019-01-06T15:54:58.372Z,12.30
2019-01-06T15:57:45.425Z,9.27
2019-01-06T16:00:38.334Z,8.70
2019-01-06T16:03:23.916Z,8.83
2019-01-06T16:06:11.062Z,10.27
2019-01-06T16:08:56.245Z,8.73
2019-01-06T16:11:41.609Z,10.67
2019-01-06T16:14:28.682Z,8.30
2019-01-06T16:17:13.308Z,8.30
2019-01-06T16:20:12.512Z,9.97
2019-01-06T16:22:51.164Z,8.73
2019-01-06T16:25:41.351Z,7.30
2019-01-06T16:28:31.174Z,8.43
2019-01-06T16:31:17.216Z,9.27
2019-01-06T16:34:22.473Z,7.90
2019-01-06T16:37:24.238Z,7.03
2019-01-06T16:40:29.370Z,7.70
2019-01-06T16:43:16.405Z,7.73
2019-01-06T16:46:01.721Z,7.90
2019-01-06T16:48:47.400Z,8.47
2019-01-06T16:51:33.043Z,10.07
2019-01-06T16:54:23.218Z,7.37
2019-01-06T16:57:08.708Z,9.73
2019-01-06T16:59:54.466Z,9.50
2019-01-06T17:02:50.635Z,10.50
2019-01-06T17:05:36.063Z,23.23
2019-01-06T17:08:21.863Z,23.03
2019-01-06T17:11:24.064Z,26.40
2019-01-06T17:14:11.140Z,30.70
2019-01-06T17:17:16.369Z,27.70
2019-01-06T17:20:02.178Z,33.73
2019-01-06T17:22:47.865Z,36.33
2019-01-06T17:25:29.844Z,32.97
2019-01-06T17:28:28.973Z,30.57
2019-01-06T17:31:28.055Z,27.83
2019-01-06T17:34:21.055Z,24.57
2019-01-06T17:37:08.099Z,24.77
2019-01-06T17:39:48.365Z,24.27
2019-01-06T17:42:33.126Z,21.40
2019-01-06T17:45:22.973Z,23.97
2019-01-06T17:48:06.390Z,23.83
2019-01-06T17:50:51.968Z,18.77
2019-01-06T17:53:39.139Z,21.67
2019-01-06T17:56:24.625Z,23.30
2019-01-06T17:59:26.573Z,20.17
2019-01-06T18:02:12.355Z,19.03
2019-01-06T18:04:59.410Z,19.43
2019-01-06T18:07:45.087Z,18.33
2019-01-06T18:10:32.267Z,18.27
2019-01-06T18:13:17.748Z,20.43
2019-01-06T18:16:23.084Z,22.33
2019-01-06T18:19:10.184Z,22.60
2019-01-06T18:21:56.994Z,31.47
2019-01-06T18:24:47.105Z,29.93
2019-01-06T18:27:32.551Z,34.73
2019-01-06T18:30:18.041Z,31.67
2019-01-06T18:33:03.478Z,32.00
2019-01-06T18:35:44.829Z,39.07
2019-01-06T18:38:31.868Z,38.27
2019-01-06T18:41:27.553Z,35.93
2019-01-06T18:44:13.051Z,36.63
2019-01-06T18:46:55.737Z,32.17
2019-01-06T18:49:42.864Z,29.87
2019-01-06T18:52:28.316Z,26.87
2019-01-06T18:55:27.498Z,24.97
2019-01-06T18:58:12.630Z,23.37
2019-01-06T19:01:08.250Z,25.90
2019-01-06T19:04:01.093Z,21.97
2019-01-06T19:06:46.821Z,23.07
2019-01-06T19:09:37.775Z,26.53
2019-01-06T19:12:26.298Z,22.80
2019-01-06T19:15:13.388Z,26.57
2019-01-06T19:18:00.465Z,25.87
2019-01-06T19:20:46.237Z,29.40
2019-01-06T19:23:33.427Z,26.97
2019-01-06T19:26:23.288Z,24.73
2019-01-06T19:29:15.973Z,23.53
2019-01-06T19:32:01.541Z,24.90
2019-01-06T19:35:06.759Z,25.20
2019-01-06T19:38:02.636Z,23.17
2019-01-06T19:40:58.721Z,25.80
2019-01-06T19:43:51.505Z,23.07
2019-01-06T19:46:36.973Z,23.90
2019-01-06T19:49:29.880Z,20.63
2019-01-06T19:52:13.397Z,25.80
2019-01-06T19:54:59.266Z,22.87
2019-01-06T19:57:55.081Z,21.97
2019-01-06T20:00:52.292Z,21.47
2019-01-06T20:03:39.369Z,20.20
2019-01-06T20:06:21.747Z,18.50
2019-01-06T20:09:10.940Z,16.07
2019-01-06T20:12:03.985Z,17.30
2019-01-06T20:14:53.871Z,17.30
2019-01-06T20:17:39.550Z,14.67
2019-01-06T20:20:29.491Z,14.03
2019-01-06T20:23:31.468Z,14.27
2019-01-06T20:26:36.508Z,14.07
2019-01-06T20:29:19.662Z,13.63
2019-01-06T20:32:12.700Z,14.03
2019-01-06T20:35:02.826Z,15.73
2019-01-06T20:37:55.898Z,11.97
2019-01-06T20:40:45.751Z,14.13
2019-01-06T20:43:31.767Z,12.87
2019-01-06T20:46:36.752Z,11.10
2019-01-06T20:49:22.110Z,11.63
2019-01-06T20:52:09.226Z,11.10
2019-01-06T20:54:54.825Z,11.47
2019-01-06T20:57:41.924Z,11.73
2019-01-06T21:00:28.984Z,14.67
2019-01-06T21:03:14.842Z,12.53
2019-01-06T21:06:01.918Z,9.63
2019-01-06T21:08:47.461Z,11.13
2019-01-06T21:11:52.645Z,12.77
2019-01-06T21:14:38.160Z,11.47
2019-01-06T21:17:37.121Z,12.93
2019-01-06T21:20:22.559Z,11.37
2019-01-06T21:23:18.432Z,11.80
2019-01-06T21:26:08.431Z,12.90
2019-01-06T21:28:55.564Z,12.23
2019-01-06T21:31:48.719Z,10.20
2019-01-06T21:34:34.082Z,10.33
2019-01-06T21:37:22.336Z,13.93
2019-01-06T21:40:08.027Z,10.03
2019-01-06T21:43:00.889Z,10.17
2019-01-06T21:45:47.909Z,11.23
2019-01-06T21:48:39.535Z,9.33
2019-01-06T21:51:22.003Z,9.90
2019-01-06T21:54:07.414Z,9.33
2019-01-06T21:57:08.875Z,9.30
2019-01-06T21:59:50.099Z,7.83
2019-01-06T22:02:39.936Z,7.53
2019-01-06T22:05:26.986Z,9.70
2019-01-06T22:08:28.879Z,8.87
2019-01-06T22:11:18.878Z,9.63
2019-01-06T22:14:20.783Z,8.37
2019-01-06T22:17:22.704Z,6.30
2019-01-06T22:20:15.610Z,7.70
2019-01-06T22:23:05.734Z,8.60
2019-01-06T22:25:58.635Z,7.90
2019-01-06T22:28:44.122Z,7.40
2019-01-06T22:31:31.135Z,8.40
2019-01-06T22:34:27.100Z,6.77
2019-01-06T22:37:32.372Z,7.50
2019-01-06T22:40:19.478Z,7.10
2019-01-06T22:43:06.547Z,5.60
2019-01-06T22:45:52.332Z,6.27
2019-01-06T22:48:39.424Z,7.17
2019-01-06T22:51:25.200Z,6.40
2019-01-06T22:54:21.445Z,7.50
2019-01-06T22:57:11.277Z,7.30
2019-01-06T22:59:58.366Z,8.10
2019-01-06T23:02:51.519Z,6.70
2019-01-06T23:05:45.702Z,5.63
2019-01-06T23:08:35.940Z,6.40
2019-01-06T23:11:19.010Z,6.30
2019-01-06T23:14:08.118Z,6.17
2019-01-06T23:16:53.806Z,6.10
2019-01-06T23:19:43.891Z,6.17
2019-01-06T23:22:33.979Z,5.77
2019-01-06T23:25:33.142Z,6.20
2019-01-06T23:28:29.105Z,6.20
2019-01-06T23:31:07.851Z,5.03
2019-01-06T23:33:46.058Z,6.07
2019-01-06T23:36:31.725Z,5.43
2019-01-06T23:39:27.331Z,5.80
2019-01-06T23:42:12.520Z,5.43
2019-01-06T23:44:58.300Z,6.10
2019-01-06T23:48:00.582Z,5.17
2019-01-06T23:50:47.463Z,5.17
2019-01-06T23:53:33.081Z,4.63
2019-01-06T23:56:32.886Z,4.10
2019-01-06T23:59:18.418Z,4.73
